AirNav   Everest Fuels
 
 1142 users online  

VA74 Caton South Heliport
Mineral, Virginia, USA

GOING TO MINERAL?


FAA INFORMATION EFFECTIVE 10 SEPTEMBER 2020

Location

FAA Identifier: VA74
Lat/Long: 38-02-44.4960N 077-46-52.9720W
38-02.741600N 077-46.882867W
38.0456933,-77.7813811
(estimated)
Elevation: 260 ft. / 79 m (estimated)
Variation: 08W (1985)
From city: 7 miles NE of MINERAL, VA
Time zone: UTC -4 (UTC -5 during Standard Time)
Zip code: 23117

Heliport Operations

Heliport use: Private use. Permission required prior to landing
Activation date: 05/1989
Control tower: no
ARTCC: WASHINGTON CENTER
FSS: LEESBURG FLIGHT SERVICE STATION
Attendance: UNATNDD
Segmented circle: no

Heliport Communications

WX AWOS-3 at 7W4 (5 nm S): 120.775 (540-872-0303)
WX AWOS-3 at LKU (9 nm W): 119.475 (540-967-1983)
WX AWOS-3 at OMH (17 nm NW): 118.075 (540-672-0505)
WX AWOS-3 at GVE (19 nm W): 120.225 (540-832-2095)

Nearby radio navigation aids

VOR radial/distance  VOR name  Freq  Var
GVEr090/17.7GORDONSVILLE VORTAC115.6006W
BRVr238/26.7BROOKE VORTAC114.5009W
FAKr010/31.1FLAT ROCK VORTAC113.3006W
CSNr180/35.9CASANOVA VORTAC116.3006W
RICr335/39.3RICHMOND VORTAC114.1009W

 
NDB name  Hdg/Dist  Freq  Var  ID
SHANNON240/20.523710WEZF . --.. ..-.
NAILR177/25.235110WMSQ -- ... --.-

Heliport Services

Runway Information

Helipad H1

Dimensions: 75 x 75 ft. / 23 x 23 m
Surface: turf
Traffic pattern: leftleft

Heliport Ownership and Management from official FAA records

Ownership: Privately-owned
Owner: JOHN LEO CATON
RT 2 BOX 110
MINERAL, VA 23117
Phone (540) 848-3388
Manager: JOHN LEO CATON
775 BRENT POINT RD
STAFFORD, VA 22554
Phone (540) 848-3388

Heliport Operational Statistics

Aircraft based on the field: 1
Helicopters: 1
    

Additional Remarks

A52-H1 30' PLINE 150' FM PAD; 15' BLDG 50' FM PAD; 15' TREE 50' FM PAD.
FOR CD CTC POTOMAC APCH AT 866-640-4124.

Instrument Procedures

There are no published instrument procedures at VA74.

Some nearby airports with instrument procedures:

7W4 - Lake Anna Airport (5 nm S)
KLKU - Louisa County Airport/Freeman Field (9 nm W)
KOMH - Orange County Airport (17 nm NW)
KGVE - Gordonsville Municipal Airport (19 nm W)
KEZF - Shannon Airport (21 nm NE)
 
Loc | Ops | Rwys | IFR | FBO | Links
Com | Nav | Svcs | Stats | Notes
Area around VA74 (Caton South Heliport)
 
Road maps at: MapQuest Bing Google
 
Aerial photo
No photo
 
Sectional chart

 
Airport distance calculator
Flying to Caton South Heliport? Find the distance to fly.

From to VA74

Sunrise and sunset
Times for 25-Sep-2020
 Local
(UTC-4)
 Zulu
(UTC)
Morning civil twilight06:3710:37
Sunrise07:0311:03
Sunset19:0223:02
Evening civil twilight19:2823:28

Current date and time
Zulu (UTC)  25-Sep-2020 23:46:33
Local (UTC-4)  25-Sep-2020 19:46:33
 
METAR
K7W4 
5nm S 
252335Z AUTO 30003KT 7SM OVC022 15/15 A3010 RMK AO1 P0001 T01510145
KLKU 
9nm W 
252335Z AUTO 13004KT 1 3/4SM +RA BR OVC008 15/15 A3013 RMK AO2 P0023 T01510149
KOMH 
18nm NW 
252335Z AUTO 00000KT 3SM RA BKN005 BKN017 OVC060 16/16 A3009 RMK AO2 P0011
KGVE 
19nm W 
252335Z AUTO 00000KT 7SM BKN007 OVC012 17/17 A3008 RMK AO1 P0013 T01650165
TAF
KCHO 
32nm W 
252118Z 2521/2618 17005KT 3SM SHRA SCT010 BKN030 OVC100 TEMPO 2521/2522 2SM SHRA BR FM260000 VRB03KT 3SM -SHRA BKN008 FM260600 VRB03KT 2SM BR BKN004 OVC010 FM261500 10004KT 4SM BR BKN015
KNYG 
36nm NE 
2515/2615 19006KT 9999 -RA SCT050 BKN090 BKN120 QNH3008INS FM251900 18006KT 9000 -RA BR SCT020 BKN050 BKN090 QNH3004INS BECMG 2600/2602 VRB06KT 6000 RA BR BKN020 BKN050 OVC090 QNH2999INS TEMPO 2602/2608 1600 +RA BR OVC009 T22/2520Z T17/2611Z LAST NO AMD AFT 2515/ NEXT 2609
KRIC 
39nm SE 
252047Z 2521/2618 11005KT P6SM -RA SCT025 OVC040 TEMPO 2521/2523 BKN025 FM252300 11004KT 6SM -RADZ BR BKN015 OVC025 FM260300 11004KT 4SM BR OVC006 FM261500 11005KT P6SM BKN016
NOTAMs
Click for the latest NOTAMs
NOTAMs are issued by the DoD/FAA and will open in a separate window not controlled by AirNav.

 

 
 

Would you like to see your business listed on this page?

 If your business provides an interesting product or service to pilots, flight crews, aircraft, or users of the Caton South Heliport, you should consider listing it here.  To start the listing process, click on the button below
 
Add a business
 

Other Pages about Caton South Heliport

Update a link
 
Copyright © AirNav, LLC. All rights reserved. Privacy Policy  Contact